createdAt,value
2022-10-07T00:02:17.591Z,10.30
2022-10-07T00:04:46.560Z,9.00
2022-10-07T00:07:15.393Z,9.50
2022-10-07T00:09:42.719Z,9.90
2022-10-07T00:12:09.805Z,8.50
2022-10-07T00:14:36.888Z,8.70
2022-10-07T00:17:04.107Z,9.40
2022-10-07T00:19:32.509Z,8.50
2022-10-07T00:21:59.567Z,8.70
2022-10-07T00:24:26.742Z,9.50
2022-10-07T00:26:53.864Z,8.40
2022-10-07T00:29:22.963Z,8.70
2022-10-07T00:31:56.950Z,8.40
2022-10-07T00:36:51.780Z,8.40
2022-10-07T00:39:18.872Z,8.80
2022-10-07T00:41:51.517Z,8.00
2022-10-07T00:44:31.686Z,7.90
2022-10-07T00:47:07.430Z,7.10
2022-10-07T00:49:40.835Z,7.80
2022-10-07T00:52:07.952Z,8.10
2022-10-07T00:54:34.999Z,8.20
2022-10-07T00:57:02.045Z,7.50
2022-10-07T00:59:29.003Z,7.10
2022-10-07T01:01:56.147Z,8.40
2022-10-07T01:04:23.089Z,9.10
2022-10-07T01:06:50.095Z,9.40
2022-10-07T01:09:17.799Z,9.10
2022-10-07T01:12:12.702Z,8.00
2022-10-07T01:14:52.564Z,8.90
2022-10-07T01:17:22.615Z,9.20
2022-10-07T01:20:25.855Z,8.10
2022-10-07T01:22:55.872Z,8.90
2022-10-07T01:26:01.933Z,7.20
2022-10-07T01:28:31.710Z,8.20
2022-10-07T01:31:00.526Z,8.10
2022-10-07T01:33:29.220Z,8.10
2022-10-07T01:36:04.560Z,7.70
2022-10-07T01:38:31.717Z,7.50
2022-10-07T01:41:21.838Z,6.80
2022-10-07T01:47:19.366Z,6.70
2022-10-07T01:50:15.864Z,7.80
2022-10-07T01:56:56.807Z,7.60
2022-10-07T02:02:06.535Z,6.30
2022-10-07T02:05:00.617Z,7.40
2022-10-07T02:07:46.562Z,6.70
2022-10-07T02:10:26.351Z,6.40
2022-10-07T02:13:12.559Z,6.40
2022-10-07T02:16:18.078Z,6.60
2022-10-07T02:18:48.572Z,7.20
2022-10-07T02:21:15.783Z,6.60
2022-10-07T02:23:43.304Z,6.70
2022-10-07T02:26:13.094Z,7.30
2022-10-07T02:28:42.152Z,7.20
2022-10-07T02:31:10.896Z,6.40
2022-10-07T02:33:38.289Z,6.10
2022-10-07T02:36:12.306Z,6.60
2022-10-07T02:38:40.175Z,6.30
2022-10-07T02:41:13.969Z,6.30
2022-10-07T02:43:45.440Z,6.10
2022-10-07T02:54:23.063Z,6.10
2022-10-07T02:56:50.437Z,6.50
2022-10-07T02:59:18.698Z,6.30
2022-10-07T03:01:48.400Z,5.60
2022-10-07T03:04:15.722Z,6.60
2022-10-07T03:06:43.048Z,5.90
2022-10-07T03:09:10.571Z,6.50
2022-10-07T03:11:38.358Z,6.50
2022-10-07T03:14:09.170Z,5.90
2022-10-07T03:16:38.879Z,5.90
2022-10-07T03:19:06.466Z,5.70
2022-10-07T03:21:44.441Z,5.90
2022-10-07T03:24:13.545Z,6.90
2022-10-07T03:26:43.965Z,6.00
2022-10-07T03:29:13.369Z,5.80
2022-10-07T03:31:41.923Z,6.50
2022-10-07T03:34:09.817Z,6.40
2022-10-07T03:36:38.810Z,6.30
2022-10-07T03:39:06.985Z,5.40
2022-10-07T03:41:36.795Z,5.90
2022-10-07T03:44:05.091Z,6.00
2022-10-07T03:46:32.599Z,6.20
2022-10-07T03:49:01.729Z,5.60
2022-10-07T03:51:29.336Z,5.80
2022-10-07T03:53:57.648Z,5.60
2022-10-07T03:56:26.781Z,5.50
2022-10-07T03:58:55.001Z,5.70
2022-10-07T04:01:22.266Z,6.00
2022-10-07T04:03:53.869Z,6.20
2022-10-07T04:06:21.070Z,5.60
2022-10-07T04:08:56.944Z,5.40
2022-10-07T04:11:28.396Z,5.80
2022-10-07T04:14:00.380Z,5.40
2022-10-07T04:16:28.493Z,5.40
2022-10-07T04:18:57.317Z,5.60
2022-10-07T04:21:25.393Z,5.30
2022-10-07T04:23:52.435Z,6.00
2022-10-07T04:26:22.352Z,6.00
2022-10-07T04:28:50.544Z,5.40
2022-10-07T04:31:19.985Z,5.40
2022-10-07T04:33:50.866Z,5.60
2022-10-07T04:36:26.727Z,6.80
2022-10-07T04:39:00.666Z,7.60
2022-10-07T04:41:31.214Z,6.50
2022-10-07T04:43:58.314Z,6.00
2022-10-07T04:46:29.222Z,7.30
2022-10-07T04:49:01.205Z,6.40
2022-10-07T04:51:30.607Z,7.40
2022-10-07T04:53:59.501Z,6.90
2022-10-07T04:56:32.914Z,7.20
2022-10-07T04:59:00.557Z,6.90
2022-10-07T05:01:28.887Z,6.30
2022-10-07T05:03:57.723Z,6.10
2022-10-07T05:06:27.945Z,5.70
2022-10-07T05:08:56.128Z,4.90
2022-10-07T05:11:25.419Z,4.80
2022-10-07T05:13:57.994Z,5.80
2022-10-07T05:16:25.375Z,5.90
2022-10-07T05:18:53.145Z,5.90
2022-10-07T05:21:20.387Z,5.70
2022-10-07T05:23:47.795Z,6.50
2022-10-07T05:26:17.713Z,6.20
2022-10-07T05:28:49.034Z,7.50
2022-10-07T05:31:19.673Z,5.90
2022-10-07T05:33:50.260Z,6.40
2022-10-07T05:36:19.401Z,7.40
2022-10-07T05:38:49.283Z,7.80
2022-10-07T05:41:16.225Z,8.30
2022-10-07T05:43:43.097Z,8.20
2022-10-07T05:46:14.292Z,7.70
2022-10-07T05:48:45.395Z,8.00
2022-10-07T05:51:13.636Z,8.50
2022-10-07T05:53:42.376Z,7.50
2022-10-07T05:56:11.555Z,7.40
2022-10-07T05:58:38.680Z,7.30
2022-10-07T06:01:10.161Z,6.80
2022-10-07T06:03:38.839Z,7.00
2022-10-07T06:06:07.566Z,5.80
2022-10-07T06:08:34.520Z,6.20
2022-10-07T06:11:20.818Z,6.10
2022-10-07T06:13:51.094Z,6.40
2022-10-07T06:16:19.623Z,6.70
2022-10-07T06:18:49.825Z,7.30
2022-10-07T06:21:17.386Z,7.30
2022-10-07T06:23:50.778Z,8.50
2022-10-07T06:26:18.951Z,7.30
2022-10-07T06:28:46.619Z,7.20
2022-10-07T06:31:14.859Z,6.50
2022-10-07T06:33:44.681Z,7.00
2022-10-07T06:36:12.836Z,7.10
2022-10-07T06:38:53.399Z,7.50
2022-10-07T06:41:24.163Z,6.90
2022-10-07T06:44:02.296Z,6.90
2022-10-07T06:46:29.512Z,6.70
2022-10-07T06:48:57.728Z,7.00
2022-10-07T06:51:24.762Z,6.70
2022-10-07T06:53:53.519Z,6.40
2022-10-07T06:56:21.286Z,6.20
2022-10-07T06:58:49.169Z,5.40
2022-10-07T07:01:20.572Z,6.10
2022-10-07T07:03:47.469Z,6.30
2022-10-07T07:06:15.310Z,6.30
2022-10-07T07:08:45.297Z,7.00
2022-10-07T07:11:34.095Z,5.90
2022-10-07T07:14:04.109Z,6.00
2022-10-07T07:16:31.574Z,5.80
2022-10-07T07:19:01.261Z,5.70
2022-10-07T07:21:29.553Z,6.20
2022-10-07T07:23:57.141Z,6.40
2022-10-07T07:26:24.206Z,5.80
2022-10-07T07:29:15.254Z,7.50
2022-10-07T07:31:50.367Z,18.30
2022-10-07T07:34:23.350Z,6.30
2022-10-07T07:36:51.993Z,7.90
2022-10-07T07:39:20.329Z,11.90
2022-10-07T07:41:52.634Z,5.50
2022-10-07T07:44:20.360Z,6.00
2022-10-07T07:46:50.133Z,6.30
2022-10-07T07:49:18.294Z,6.10
2022-10-07T07:51:47.174Z,6.60
2022-10-07T07:54:19.313Z,5.90
2022-10-07T07:56:50.240Z,6.10
2022-10-07T07:59:17.753Z,6.40
2022-10-07T08:01:48.916Z,6.30
2022-10-07T08:04:23.315Z,5.90
2022-10-07T08:07:00.376Z,5.80
2022-10-07T08:09:28.260Z,5.90
2022-10-07T08:11:57.881Z,5.60
2022-10-07T08:14:25.024Z,5.70
2022-10-07T08:16:55.712Z,5.20
2022-10-07T08:19:23.548Z,5.00
2022-10-07T08:21:53.876Z,7.10
2022-10-07T08:24:27.327Z,5.50
2022-10-07T08:26:54.472Z,5.30
2022-10-07T08:29:25.430Z,6.30
2022-10-07T08:34:47.726Z,7.40
2022-10-07T08:37:14.880Z,5.60
2022-10-07T08:39:41.926Z,6.80
2022-10-07T08:42:25.973Z,5.90
2022-10-07T08:44:53.499Z,6.30
2022-10-07T08:47:40.696Z,8.70
2022-10-07T08:50:19.408Z,8.80
2022-10-07T08:52:49.896Z,7.60
2022-10-07T08:55:30.578Z,6.30
2022-10-07T08:58:10.221Z,6.50
2022-10-07T09:01:00.092Z,6.60
2022-10-07T09:03:32.156Z,7.40
2022-10-07T09:05:59.637Z,8.30
2022-10-07T09:08:30.679Z,7.70
2022-10-07T09:11:03.436Z,10.70
2022-10-07T09:13:35.881Z,10.20
2022-10-07T09:16:19.955Z,10.10
2022-10-07T09:19:05.326Z,8.50
2022-10-07T09:21:45.135Z,8.60
2022-10-07T09:24:24.622Z,9.50
2022-10-07T09:26:54.450Z,8.30
2022-10-07T09:29:28.236Z,7.20
2022-10-07T09:31:56.106Z,8.20
2022-10-07T09:34:27.650Z,7.30
2022-10-07T09:37:15.996Z,8.00
2022-10-07T09:39:43.720Z,7.40
2022-10-07T09:42:25.033Z,8.50
2022-10-07T09:44:53.018Z,8.30
2022-10-07T09:47:22.990Z,7.70
2022-10-07T09:49:51.864Z,7.50
2022-10-07T09:52:23.416Z,8.00
2022-10-07T09:54:55.064Z,7.90
2022-10-07T09:57:31.264Z,110.70
2022-10-07T10:00:13.530Z,9.80
2022-10-07T10:02:41.358Z,11.90
2022-10-07T10:05:25.029Z,8.50
2022-10-07T10:08:10.822Z,9.00
2022-10-07T10:10:37.861Z,8.40
2022-10-07T10:13:05.812Z,8.30
2022-10-07T10:15:35.822Z,8.80
2022-10-07T10:18:03.297Z,9.00
2022-10-07T10:20:43.495Z,9.40
2022-10-07T10:23:34.854Z,8.60
2022-10-07T10:26:33.387Z,8.50
2022-10-07T10:29:25.739Z,8.50
2022-10-07T10:32:03.693Z,8.40
2022-10-07T10:34:49.369Z,8.00
2022-10-07T10:37:20.565Z,7.30
2022-10-07T10:39:53.603Z,7.30
2022-10-07T10:42:23.036Z,7.90
2022-10-07T10:45:18.406Z,7.70
2022-10-07T10:48:17.727Z,7.30
2022-10-07T10:50:54.187Z,6.90
2022-10-07T10:53:44.280Z,6.90
2022-10-07T10:56:21.048Z,7.10
2022-10-07T10:58:54.492Z,7.90
2022-10-07T11:01:21.596Z,7.10
2022-10-07T11:04:26.075Z,9.60
2022-10-07T11:07:00.197Z,6.80
2022-10-07T11:09:43.910Z,13.10
2022-10-07T11:12:37.481Z,7.30
2022-10-07T11:15:28.176Z,6.70
2022-10-07T11:17:56.556Z,7.80
2022-10-07T11:20:39.853Z,7.50
2022-10-07T11:25:37.659Z,5.90
2022-10-07T11:28:15.417Z,7.10
2022-10-07T11:31:04.647Z,6.10
2022-10-07T11:37:27.693Z,6.90
2022-10-07T11:39:55.148Z,7.00
2022-10-07T11:42:28.977Z,7.70
2022-10-07T11:52:04.730Z,7.00
2022-10-07T11:54:47.349Z,7.10
2022-10-07T12:04:25.192Z,7.10
2022-10-07T12:07:30.608Z,6.90
2022-10-07T12:10:03.725Z,8.50
2022-10-07T12:12:45.820Z,7.30
2022-10-07T12:15:43.107Z,6.90
2022-10-07T12:18:13.512Z,7.20
2022-10-07T12:20:48.536Z,7.00
2022-10-07T12:23:28.593Z,6.40
2022-10-07T12:26:31.274Z,6.30
2022-10-07T12:28:58.361Z,7.10
2022-10-07T12:31:25.502Z,6.50
2022-10-07T12:34:21.897Z,6.80
2022-10-07T12:36:49.354Z,6.20
2022-10-07T12:39:31.758Z,5.60
2022-10-07T12:41:58.928Z,6.50
2022-10-07T12:44:33.610Z,5.50
2022-10-07T12:47:15.063Z,5.70
2022-10-07T12:49:58.858Z,6.40
2022-10-07T12:52:44.767Z,5.70
2022-10-07T12:55:19.539Z,5.80
2022-10-07T12:57:53.717Z,5.70
2022-10-07T13:00:24.951Z,6.00
2022-10-07T13:03:23.959Z,6.10
2022-10-07T13:06:12.628Z,7.20
2022-10-07T13:09:04.379Z,5.50
2022-10-07T13:11:47.692Z,5.60
2022-10-07T13:14:25.648Z,6.00
2022-10-07T13:16:57.565Z,6.00
2022-10-07T13:20:10.327Z,5.30
2022-10-07T13:22:37.596Z,5.30
2022-10-07T13:25:05.069Z,4.90
2022-10-07T13:27:33.113Z,4.80
2022-10-07T13:30:01.654Z,5.50
2022-10-07T13:32:33.139Z,5.10
2022-10-07T13:35:01.619Z,6.90
2022-10-07T13:37:28.564Z,6.60
2022-10-07T13:40:19.821Z,7.30
2022-10-07T13:42:53.579Z,6.80
2022-10-07T13:45:20.900Z,7.20
2022-10-07T13:47:51.569Z,6.60
2022-10-07T13:50:31.213Z,6.10
2022-10-07T13:53:01.739Z,7.20
2022-10-07T13:55:29.809Z,6.90
2022-10-07T13:57:57.610Z,6.70
2022-10-07T14:00:25.442Z,6.50
2022-10-07T14:02:56.498Z,6.10
2022-10-07T14:05:28.648Z,7.10
2022-10-07T14:07:57.414Z,6.50
2022-10-07T14:10:26.408Z,6.10
2022-10-07T14:13:03.616Z,6.00
2022-10-07T14:15:31.587Z,6.60
2022-10-07T14:18:19.996Z,7.10
2022-10-07T14:20:51.091Z,9.80
2022-10-07T14:23:31.526Z,6.60
2022-10-07T14:25:59.419Z,7.10
2022-10-07T14:28:28.594Z,6.50
2022-10-07T14:31:27.277Z,6.80
2022-10-07T14:34:32.758Z,7.10
2022-10-07T14:37:18.749Z,6.50
2022-10-07T14:39:48.143Z,6.50
2022-10-07T14:42:18.987Z,6.20
2022-10-07T14:44:46.034Z,5.60
2022-10-07T14:47:22.597Z,6.50
2022-10-07T14:49:50.073Z,6.70
2022-10-07T14:52:44.622Z,6.60
2022-10-07T14:55:12.213Z,7.40
2022-10-07T14:57:39.255Z,6.70
2022-10-07T15:00:38.683Z,5.80
2022-10-07T15:03:09.563Z,8.80
2022-10-07T15:05:39.412Z,7.40
2022-10-07T15:08:06.462Z,17.90
2022-10-07T15:10:33.605Z,5.60
2022-10-07T15:13:00.758Z,4.90
2022-10-07T15:15:27.839Z,5.90
2022-10-07T15:17:54.956Z,5.90
2022-10-07T15:20:22.103Z,6.30
2022-10-07T15:22:50.582Z,6.20
2022-10-07T15:25:19.679Z,5.80
2022-10-07T15:27:46.828Z,5.70
2022-10-07T15:30:14.199Z,7.80
2022-10-07T15:32:41.230Z,8.30
2022-10-07T15:35:08.849Z,6.40
2022-10-07T15:37:35.944Z,6.90
2022-10-07T15:40:03.301Z,6.50
2022-10-07T15:42:30.649Z,7.70
2022-10-07T15:44:57.699Z,6.70
2022-10-07T15:47:27.851Z,6.20
2022-10-07T15:49:58.241Z,6.30
2022-10-07T15:52:26.376Z,8.70
2022-10-07T15:54:53.671Z,8.10
2022-10-07T15:57:25.114Z,8.30
2022-10-07T15:59:54.941Z,8.20
2022-10-07T16:02:22.758Z,9.30
2022-10-07T16:04:51.792Z,9.30
2022-10-07T16:07:18.750Z,9.00
2022-10-07T16:09:45.778Z,10.70
2022-10-07T16:12:23.280Z,11.30
2022-10-07T16:14:52.470Z,10.60
2022-10-07T16:17:19.726Z,9.60
2022-10-07T16:19:49.640Z,11.50
2022-10-07T16:22:16.886Z,12.60
2022-10-07T16:24:46.494Z,14.70
2022-10-07T16:27:14.081Z,16.90
2022-10-07T16:29:59.945Z,14.10
2022-10-07T16:32:32.211Z,14.70
2022-10-07T16:35:02.178Z,15.10
2022-10-07T16:37:31.016Z,16.40
2022-10-07T16:39:58.069Z,20.40
2022-10-07T16:42:25.415Z,20.50
2022-10-07T16:44:52.365Z,19.40
2022-10-07T16:47:19.510Z,18.30
2022-10-07T16:49:49.735Z,18.10
2022-10-07T16:52:19.652Z,19.40
2022-10-07T16:54:48.992Z,19.00
2022-10-07T16:57:15.999Z,20.40
2022-10-07T16:59:48.484Z,20.00
2022-10-07T17:02:15.625Z,17.60
2022-10-07T17:04:53.684Z,13.80
2022-10-07T17:07:22.512Z,14.80
2022-10-07T17:09:52.019Z,13.40
2022-10-07T17:12:22.139Z,14.20
2022-10-07T17:14:49.355Z,14.30
2022-10-07T17:17:23.704Z,13.10
2022-10-07T17:19:51.786Z,14.60
2022-10-07T17:22:21.328Z,15.40
2022-10-07T17:24:48.534Z,15.00
2022-10-07T17:27:21.518Z,16.80
2022-10-07T17:29:48.565Z,17.90
2022-10-07T17:32:15.548Z,18.80
2022-10-07T17:34:45.641Z,18.30
2022-10-07T17:37:12.984Z,19.50
2022-10-07T17:39:40.786Z,22.50
2022-10-07T17:42:10.050Z,21.30
2022-10-07T17:44:37.268Z,22.80
2022-10-07T17:47:04.438Z,24.80
2022-10-07T17:49:33.956Z,27.10
2022-10-07T17:52:01.206Z,30.20
2022-10-07T17:54:30.431Z,33.70
2022-10-07T17:56:57.664Z,34.20
2022-10-07T17:59:27.576Z,36.90
2022-10-07T18:01:54.623Z,37.10
2022-10-07T18:04:24.953Z,34.10
2022-10-07T18:06:52.522Z,39.70
2022-10-07T18:09:19.688Z,41.50
2022-10-07T18:12:05.401Z,37.20
2022-10-07T18:14:53.765Z,38.10
2022-10-07T18:17:22.060Z,36.20
2022-10-07T18:19:49.127Z,36.00
2022-10-07T18:22:16.158Z,33.10
2022-10-07T18:24:43.207Z,31.40
2022-10-07T18:27:10.254Z,29.80
2022-10-07T18:29:40.473Z,29.90
2022-10-07T18:32:08.342Z,29.10
2022-10-07T18:34:35.702Z,28.90
2022-10-07T18:37:02.838Z,27.80
2022-10-07T18:39:30.039Z,29.50
2022-10-07T18:41:57.547Z,29.60
2022-10-07T18:44:27.049Z,30.80
2022-10-07T18:46:54.309Z,28.60
2022-10-07T18:49:22.379Z,41.50
2022-10-07T18:51:51.072Z,49.60
2022-10-07T18:54:19.028Z,48.80
2022-10-07T18:56:47.921Z,52.80
2022-10-07T18:59:15.127Z,44.70
2022-10-07T19:01:45.335Z,72.80
2022-10-07T19:04:14.970Z,47.10
2022-10-07T19:06:46.451Z,32.50
2022-10-07T19:09:16.160Z,27.50
2022-10-07T19:11:43.209Z,26.40
2022-10-07T19:14:12.711Z,26.20
2022-10-07T19:16:41.573Z,36.40
2022-10-07T19:19:12.158Z,40.30
2022-10-07T19:21:40.199Z,35.30
2022-10-07T19:24:08.302Z,24.60
2022-10-07T19:26:37.414Z,21.90
2022-10-07T19:29:05.114Z,22.10
2022-10-07T19:31:49.087Z,23.10
2022-10-07T19:34:18.374Z,28.70
2022-10-07T19:36:48.087Z,27.00
2022-10-07T19:39:16.783Z,26.10
2022-10-07T19:41:45.216Z,21.60
2022-10-07T19:44:12.711Z,20.40
2022-10-07T19:46:40.061Z,21.10
2022-10-07T19:49:07.621Z,22.90
2022-10-07T19:51:34.670Z,22.50
2022-10-07T19:54:02.757Z,23.30
2022-10-07T19:56:35.826Z,24.20
2022-10-07T19:59:11.069Z,22.80
2022-10-07T20:01:42.258Z,23.60
2022-10-07T20:04:23.415Z,21.90
2022-10-07T20:06:50.406Z,24.30
2022-10-07T20:09:18.562Z,23.30
2022-10-07T20:11:47.090Z,25.10
2022-10-07T20:14:15.389Z,24.60
2022-10-07T20:16:42.504Z,25.30
2022-10-07T20:19:15.835Z,22.80
2022-10-07T20:21:42.956Z,24.50
2022-10-07T20:24:14.566Z,23.80
2022-10-07T20:26:42.789Z,33.50
2022-10-07T20:29:11.905Z,25.70
2022-10-07T20:31:40.209Z,23.20
2022-10-07T20:34:08.233Z,23.60
2022-10-07T20:36:36.929Z,23.10
2022-10-07T20:39:33.056Z,23.60
2022-10-07T20:42:27.426Z,28.60
2022-10-07T20:44:56.696Z,28.80
2022-10-07T20:47:24.317Z,26.30
2022-10-07T20:49:51.888Z,26.10
2022-10-07T20:52:20.636Z,26.90
2022-10-07T20:54:47.894Z,26.20
2022-10-07T20:57:16.942Z,27.00
2022-10-07T20:59:44.784Z,26.30
2022-10-07T21:02:13.845Z,25.60
2022-10-07T21:04:41.803Z,26.60
2022-10-07T21:07:09.311Z,28.70
2022-10-07T21:09:36.735Z,31.00
2022-10-07T21:12:05.200Z,30.50
2022-10-07T21:14:32.287Z,30.50
2022-10-07T21:17:00.287Z,29.10
2022-10-07T21:19:28.017Z,29.10
2022-10-07T21:21:55.176Z,29.20
2022-10-07T21:24:22.523Z,29.80
2022-10-07T21:26:49.694Z,31.30
2022-10-07T21:29:17.379Z,29.30
2022-10-07T21:31:44.588Z,27.20
2022-10-07T21:34:11.737Z,25.20
2022-10-07T21:36:50.419Z,27.00
2022-10-07T21:39:18.938Z,27.60
2022-10-07T21:41:47.727Z,27.50
2022-10-07T21:44:15.085Z,28.40
2022-10-07T21:46:48.170Z,26.10
2022-10-07T21:49:15.654Z,24.10
2022-10-07T21:51:46.462Z,23.50
2022-10-07T21:54:14.467Z,23.50
2022-10-07T21:56:43.832Z,23.30
2022-10-07T21:59:12.689Z,21.90
2022-10-07T22:01:39.815Z,22.00
2022-10-07T22:04:08.362Z,20.90
2022-10-07T22:06:54.344Z,20.70
2022-10-07T22:09:21.705Z,22.10
2022-10-07T22:11:49.387Z,21.50
2022-10-07T22:14:18.837Z,18.00
2022-10-07T22:16:48.688Z,15.30
2022-10-07T22:19:17.644Z,14.30
2022-10-07T22:21:45.986Z,13.00
2022-10-07T22:24:13.542Z,13.60
2022-10-07T22:26:46.369Z,12.60
2022-10-07T22:29:14.767Z,11.90
2022-10-07T22:31:42.409Z,11.10
2022-10-07T22:34:47.553Z,12.10
2022-10-07T22:37:14.509Z,10.30
2022-10-07T22:39:41.778Z,11.40
2022-10-07T22:42:08.828Z,11.00
2022-10-07T22:44:35.767Z,10.60
2022-10-07T22:47:03.022Z,10.20
2022-10-07T22:49:30.487Z,10.80
2022-10-07T22:51:59.949Z,10.10
2022-10-07T22:54:27.497Z,10.20
2022-10-07T22:56:54.845Z,10.30
2022-10-07T22:59:21.948Z,11.30
2022-10-07T23:01:48.995Z,11.90
2022-10-07T23:04:16.144Z,12.00
2022-10-07T23:06:43.188Z,12.80
2022-10-07T23:09:10.237Z,13.60
2022-10-07T23:11:37.283Z,12.70
2022-10-07T23:14:05.713Z,12.00
2022-10-07T23:16:34.452Z,12.50
2022-10-07T23:19:01.404Z,13.20
2022-10-07T23:21:29.875Z,13.40
2022-10-07T23:24:06.934Z,13.40
2022-10-07T23:26:34.747Z,12.10
2022-10-07T23:29:02.221Z,11.80
2022-10-07T23:31:30.636Z,11.40
2022-10-07T23:33:58.322Z,11.10
2022-10-07T23:36:25.679Z,11.40
2022-10-07T23:38:52.779Z,12.00
2022-10-07T23:42:31.989Z,12.10
2022-10-07T23:45:03.622Z,12.60
2022-10-07T23:47:30.771Z,13.30
2022-10-07T23:49:57.748Z,13.00
2022-10-07T23:52:24.766Z,13.00
2022-10-07T23:54:51.841Z,11.60
2022-10-07T23:57:18.688Z,12.10
2022-10-07T23:59:45.929Z,11.60
